sensor_id;sensor_type;location;lat;lon;timestamp;temperature;humidity
11239;DHT22;5677;48.488;13.436;2023-12-20T00:02:12;11.40;52.60
11239;DHT22;5677;48.488;13.436;2023-12-20T00:04:38;11.40;52.70
11239;DHT22;5677;48.488;13.436;2023-12-20T00:07:05;11.40;52.70
11239;DHT22;5677;48.488;13.436;2023-12-20T00:09:32;11.40;52.70
11239;DHT22;5677;48.488;13.436;2023-12-20T00:12:00;11.40;52.70
11239;DHT22;5677;48.488;13.436;2023-12-20T00:14:27;11.40;52.60
11239;DHT22;5677;48.488;13.436;2023-12-20T00:16:54;11.40;52.70
11239;DHT22;5677;48.488;13.436;2023-12-20T00:19:21;11.40;52.60
11239;DHT22;5677;48.488;13.436;2023-12-20T00:21:47;11.40;52.70
11239;DHT22;5677;48.488;13.436;2023-12-20T00:24:14;11.40;52.60
11239;DHT22;5677;48.488;13.436;2023-12-20T00:26:42;11.40;52.70
11239;DHT22;5677;48.488;13.436;2023-12-20T00:29:10;11.40;52.70
11239;DHT22;5677;48.488;13.436;2023-12-20T00:31:37;11.40;52.70
11239;DHT22;5677;48.488;13.436;2023-12-20T00:34:03;11.30;52.70
11239;DHT22;5677;48.488;13.436;2023-12-20T00:36:30;11.40;52.70
11239;DHT22;5677;48.488;13.436;2023-12-20T00:38:57;11.30;52.70
11239;DHT22;5677;48.488;13.436;2023-12-20T00:41:23;11.40;52.70
11239;DHT22;5677;48.488;13.436;2023-12-20T00:43:50;11.30;52.70
11239;DHT22;5677;48.488;13.436;2023-12-20T00:46:18;11.30;52.70
11239;DHT22;5677;48.488;13.436;2023-12-20T00:48:45;11.30;52.70
11239;DHT22;5677;48.488;13.436;2023-12-20T00:51:12;11.30;52.80
11239;DHT22;5677;48.488;13.436;2023-12-20T00:53:38;11.30;52.70
11239;DHT22;5677;48.488;13.436;2023-12-20T00:56:05;11.30;52.80
11239;DHT22;5677;48.488;13.436;2023-12-20T00:58:32;11.30;52.80
11239;DHT22;5677;48.488;13.436;2023-12-20T01:00:59;11.30;52.80
11239;DHT22;5677;48.488;13.436;2023-12-20T01:03:27;11.30;52.80
11239;DHT22;5677;48.488;13.436;2023-12-20T01:05:54;11.30;52.80
11239;DHT22;5677;48.488;13.436;2023-12-20T01:08:21;11.30;52.80
11239;DHT22;5677;48.488;13.436;2023-12-20T01:10:47;11.30;52.80
11239;DHT22;5677;48.488;13.436;2023-12-20T01:13:14;11.30;52.80
11239;DHT22;5677;48.488;13.436;2023-12-20T01:15:41;11.30;52.80
11239;DHT22;5677;48.488;13.436;2023-12-20T01:18:08;11.30;52.70
11239;DHT22;5677;48.488;13.436;2023-12-20T01:20:36;11.30;52.80
11239;DHT22;5677;48.488;13.436;2023-12-20T01:23:03;11.30;52.80
11239;DHT22;5677;48.488;13.436;2023-12-20T01:25:29;11.30;52.80
11239;DHT22;5677;48.488;13.436;2023-12-20T01:27:56;11.30;52.80
11239;DHT22;5677;48.488;13.436;2023-12-20T01:30:23;11.30;52.80
11239;DHT22;5677;48.488;13.436;2023-12-20T01:32:50;11.30;52.80
11239;DHT22;5677;48.488;13.436;2023-12-20T01:35:16;11.20;52.70
11239;DHT22;5677;48.488;13.436;2023-12-20T01:37:44;11.20;52.70
11239;DHT22;5677;48.488;13.436;2023-12-20T01:40:11;11.20;52.80
11239;DHT22;5677;48.488;13.436;2023-12-20T01:42:38;11.20;52.70
11239;DHT22;5677;48.488;13.436;2023-12-20T01:45:06;11.20;52.70
11239;DHT22;5677;48.488;13.436;2023-12-20T01:47:32;11.20;52.80
11239;DHT22;5677;48.488;13.436;2023-12-20T01:49:59;11.20;52.80
11239;DHT22;5677;48.488;13.436;2023-12-20T01:52:29;11.20;52.80
11239;DHT22;5677;48.488;13.436;2023-12-20T01:54:57;11.20;52.70
11239;DHT22;5677;48.488;13.436;2023-12-20T01:57:28;11.20;52.80
11239;DHT22;5677;48.488;13.436;2023-12-20T01:59:55;11.20;52.80
11239;DHT22;5677;48.488;13.436;2023-12-20T02:02:22;11.20;53.40
11239;DHT22;5677;48.488;13.436;2023-12-20T02:04:49;11.20;52.80
11239;DHT22;5677;48.488;13.436;2023-12-20T02:07:17;11.20;52.80
11239;DHT22;5677;48.488;13.436;2023-12-20T02:09:45;11.20;52.80
11239;DHT22;5677;48.488;13.436;2023-12-20T02:12:13;11.20;52.80
11239;DHT22;5677;48.488;13.436;2023-12-20T02:14:39;11.20;52.80
11239;DHT22;5677;48.488;13.436;2023-12-20T02:17:06;11.20;52.80
11239;DHT22;5677;48.488;13.436;2023-12-20T02:19:33;11.20;52.80
11239;DHT22;5677;48.488;13.436;2023-12-20T02:22:09;11.20;52.80
11239;DHT22;5677;48.488;13.436;2023-12-20T02:24:35;11.20;52.80
11239;DHT22;5677;48.488;13.436;2023-12-20T02:27:03;11.20;52.80
11239;DHT22;5677;48.488;13.436;2023-12-20T02:29:29;11.20;52.80
11239;DHT22;5677;48.488;13.436;2023-12-20T02:31:57;11.20;52.80
11239;DHT22;5677;48.488;13.436;2023-12-20T02:34:24;11.10;52.80
11239;DHT22;5677;48.488;13.436;2023-12-20T02:36:51;11.10;52.80
11239;DHT22;5677;48.488;13.436;2023-12-20T02:39:19;11.10;52.80
11239;DHT22;5677;48.488;13.436;2023-12-20T02:41:46;11.10;52.80
11239;DHT22;5677;48.488;13.436;2023-12-20T02:44:12;11.10;52.80
11239;DHT22;5677;48.488;13.436;2023-12-20T02:46:39;11.10;52.80
11239;DHT22;5677;48.488;13.436;2023-12-20T02:49:06;11.10;52.80
11239;DHT22;5677;48.488;13.436;2023-12-20T02:51:33;11.20;52.80
11239;DHT22;5677;48.488;13.436;2023-12-20T02:53:59;11.10;52.80
11239;DHT22;5677;48.488;13.436;2023-12-20T02:56:27;11.10;52.80
11239;DHT22;5677;48.488;13.436;2023-12-20T02:58:54;11.10;52.80
11239;DHT22;5677;48.488;13.436;2023-12-20T03:01:21;11.20;52.80
11239;DHT22;5677;48.488;13.436;2023-12-20T03:03:47;11.10;52.80
11239;DHT22;5677;48.488;13.436;2023-12-20T03:06:16;11.10;52.80
11239;DHT22;5677;48.488;13.436;2023-12-20T03:08:43;11.10;52.80
11239;DHT22;5677;48.488;13.436;2023-12-20T03:11:10;11.20;52.80
11239;DHT22;5677;48.488;13.436;2023-12-20T03:13:38;11.10;52.80
11239;DHT22;5677;48.488;13.436;2023-12-20T03:16:08;11.10;52.80
11239;DHT22;5677;48.488;13.436;2023-12-20T03:18:35;11.10;52.80
11239;DHT22;5677;48.488;13.436;2023-12-20T03:21:02;11.10;52.80
11239;DHT22;5677;48.488;13.436;2023-12-20T03:23:29;11.10;52.80
11239;DHT22;5677;48.488;13.436;2023-12-20T03:25:57;11.10;52.80
11239;DHT22;5677;48.488;13.436;2023-12-20T03:28:24;11.10;52.80
11239;DHT22;5677;48.488;13.436;2023-12-20T03:30:53;11.10;52.80
11239;DHT22;5677;48.488;13.436;2023-12-20T03:33:19;11.10;52.80
11239;DHT22;5677;48.488;13.436;2023-12-20T03:35:46;11.10;52.80
11239;DHT22;5677;48.488;13.436;2023-12-20T03:38:13;11.10;52.80
11239;DHT22;5677;48.488;13.436;2023-12-20T03:40:40;11.10;52.80
11239;DHT22;5677;48.488;13.436;2023-12-20T03:43:06;11.10;52.80
11239;DHT22;5677;48.488;13.436;2023-12-20T03:45:33;11.10;52.80
11239;DHT22;5677;48.488;13.436;2023-12-20T03:48:01;11.10;52.80
11239;DHT22;5677;48.488;13.436;2023-12-20T03:50:28;11.10;52.80
11239;DHT22;5677;48.488;13.436;2023-12-20T03:52:55;11.10;52.80
11239;DHT22;5677;48.488;13.436;2023-12-20T03:55:22;11.10;52.80
11239;DHT22;5677;48.488;13.436;2023-12-20T03:57:49;11.10;52.80
11239;DHT22;5677;48.488;13.436;2023-12-20T04:00:15;11.10;52.80
11239;DHT22;5677;48.488;13.436;2023-12-20T04:02:42;11.10;52.80
11239;DHT22;5677;48.488;13.436;2023-12-20T04:05:11;11.10;52.80
11239;DHT22;5677;48.488;13.436;2023-12-20T04:07:37;11.10;52.80
11239;DHT22;5677;48.488;13.436;2023-12-20T04:10:05;11.10;52.80
11239;DHT22;5677;48.488;13.436;2023-12-20T04:12:32;11.10;52.80
11239;DHT22;5677;48.488;13.436;2023-12-20T04:14:59;11.10;52.80
11239;DHT22;5677;48.488;13.436;2023-12-20T04:17:25;11.10;52.90
11239;DHT22;5677;48.488;13.436;2023-12-20T04:19:52;11.10;52.90
11239;DHT22;5677;48.488;13.436;2023-12-20T04:22:20;11.10;52.90
11239;DHT22;5677;48.488;13.436;2023-12-20T04:24:47;11.00;52.70
11239;DHT22;5677;48.488;13.436;2023-12-20T04:27:14;11.10;52.90
11239;DHT22;5677;48.488;13.436;2023-12-20T04:29:41;11.10;52.80
11239;DHT22;5677;48.488;13.436;2023-12-20T04:32:08;11.00;52.80
11239;DHT22;5677;48.488;13.436;2023-12-20T04:34:34;11.10;52.90
11239;DHT22;5677;48.488;13.436;2023-12-20T04:37:01;11.00;52.80
11239;DHT22;5677;48.488;13.436;2023-12-20T04:39:29;11.00;52.80
11239;DHT22;5677;48.488;13.436;2023-12-20T04:41:57;11.10;52.90
11239;DHT22;5677;48.488;13.436;2023-12-20T04:44:24;11.00;52.80
11239;DHT22;5677;48.488;13.436;2023-12-20T04:46:52;11.00;52.80
11239;DHT22;5677;48.488;13.436;2023-12-20T04:49:18;11.00;52.80
11239;DHT22;5677;48.488;13.436;2023-12-20T04:51:44;11.00;52.70
11239;DHT22;5677;48.488;13.436;2023-12-20T04:54:11;11.00;53.10
11239;DHT22;5677;48.488;13.436;2023-12-20T04:56:40;11.00;52.70
11239;DHT22;5677;48.488;13.436;2023-12-20T04:59:07;11.00;52.70
11239;DHT22;5677;48.488;13.436;2023-12-20T05:01:34;11.00;52.70
11239;DHT22;5677;48.488;13.436;2023-12-20T05:04:01;11.00;52.70
11239;DHT22;5677;48.488;13.436;2023-12-20T05:06:27;11.00;52.70
11239;DHT22;5677;48.488;13.436;2023-12-20T05:08:54;11.00;52.70
11239;DHT22;5677;48.488;13.436;2023-12-20T05:11:21;11.00;52.70
11239;DHT22;5677;48.488;13.436;2023-12-20T05:13:49;11.00;52.70
11239;DHT22;5677;48.488;13.436;2023-12-20T05:16:15;11.00;52.70
11239;DHT22;5677;48.488;13.436;2023-12-20T05:18:43;11.00;52.70
11239;DHT22;5677;48.488;13.436;2023-12-20T05:21:10;11.00;52.70
11239;DHT22;5677;48.488;13.436;2023-12-20T05:23:37;11.00;52.70
11239;DHT22;5677;48.488;13.436;2023-12-20T05:26:03;11.00;52.70
11239;DHT22;5677;48.488;13.436;2023-12-20T05:28:30;11.00;52.70
11239;DHT22;5677;48.488;13.436;2023-12-20T05:30:58;11.00;52.70
11239;DHT22;5677;48.488;13.436;2023-12-20T05:33:25;11.00;52.60
11239;DHT22;5677;48.488;13.436;2023-12-20T05:35:52;11.00;52.60
11239;DHT22;5677;48.488;13.436;2023-12-20T05:38:18;11.00;52.60
11239;DHT22;5677;48.488;13.436;2023-12-20T05:40:45;11.00;52.70
11239;DHT22;5677;48.488;13.436;2023-12-20T05:43:12;11.00;52.70
11239;DHT22;5677;48.488;13.436;2023-12-20T05:45:38;11.00;52.60
11239;DHT22;5677;48.488;13.436;2023-12-20T05:48:07;11.00;52.70
11239;DHT22;5677;48.488;13.436;2023-12-20T05:50:34;11.00;52.70
11239;DHT22;5677;48.488;13.436;2023-12-20T05:53:01;11.00;52.70
11239;DHT22;5677;48.488;13.436;2023-12-20T05:55:27;11.00;52.80
11239;DHT22;5677;48.488;13.436;2023-12-20T05:57:54;11.00;52.80
11239;DHT22;5677;48.488;13.436;2023-12-20T06:00:21;11.00;52.80
11239;DHT22;5677;48.488;13.436;2023-12-20T06:02:47;11.00;52.80
11239;DHT22;5677;48.488;13.436;2023-12-20T06:05:15;11.00;52.80
11239;DHT22;5677;48.488;13.436;2023-12-20T06:07:42;11.00;52.80
11239;DHT22;5677;48.488;13.436;2023-12-20T06:10:10;11.10;52.80
11239;DHT22;5677;48.488;13.436;2023-12-20T06:12:37;11.00;52.70
11239;DHT22;5677;48.488;13.436;2023-12-20T06:15:04;11.10;52.80
11239;DHT22;5677;48.488;13.436;2023-12-20T06:17:31;11.10;52.80
11239;DHT22;5677;48.488;13.436;2023-12-20T06:19:58;11.10;52.80
11239;DHT22;5677;48.488;13.436;2023-12-20T06:22:26;11.10;52.80
11239;DHT22;5677;48.488;13.436;2023-12-20T06:24:53;11.10;52.80
11239;DHT22;5677;48.488;13.436;2023-12-20T06:27:20;11.10;52.80
11239;DHT22;5677;48.488;13.436;2023-12-20T06:29:46;11.10;52.80
11239;DHT22;5677;48.488;13.436;2023-12-20T06:32:13;11.10;52.80
11239;DHT22;5677;48.488;13.436;2023-12-20T06:34:40;11.10;52.80
11239;DHT22;5677;48.488;13.436;2023-12-20T06:37:07;11.10;52.80
11239;DHT22;5677;48.488;13.436;2023-12-20T06:39:35;11.10;52.80
11239;DHT22;5677;48.488;13.436;2023-12-20T06:42:02;11.10;52.80
11239;DHT22;5677;48.488;13.436;2023-12-20T06:44:29;11.20;52.70
11239;DHT22;5677;48.488;13.436;2023-12-20T06:46:57;11.20;52.70
11239;DHT22;5677;48.488;13.436;2023-12-20T06:49:23;11.20;52.70
11239;DHT22;5677;48.488;13.436;2023-12-20T06:51:50;11.20;52.70
11239;DHT22;5677;48.488;13.436;2023-12-20T06:54:17;11.20;52.70
11239;DHT22;5677;48.488;13.436;2023-12-20T06:56:45;11.20;52.70
11239;DHT22;5677;48.488;13.436;2023-12-20T06:59:12;11.20;52.70
11239;DHT22;5677;48.488;13.436;2023-12-20T07:01:38;11.20;52.70
11239;DHT22;5677;48.488;13.436;2023-12-20T07:04:05;11.20;52.70
11239;DHT22;5677;48.488;13.436;2023-12-20T07:06:32;11.20;52.70
11239;DHT22;5677;48.488;13.436;2023-12-20T07:08:59;11.20;52.70
11239;DHT22;5677;48.488;13.436;2023-12-20T07:11:25;11.20;52.70
11239;DHT22;5677;48.488;13.436;2023-12-20T07:13:53;11.20;52.70
11239;DHT22;5677;48.488;13.436;2023-12-20T07:16:20;11.20;52.70
11239;DHT22;5677;48.488;13.436;2023-12-20T07:18:48;11.20;52.70
11239;DHT22;5677;48.488;13.436;2023-12-20T07:21:14;11.20;52.70
11239;DHT22;5677;48.488;13.436;2023-12-20T07:23:41;11.20;52.70
11239;DHT22;5677;48.488;13.436;2023-12-20T07:26:08;11.20;52.70
11239;DHT22;5677;48.488;13.436;2023-12-20T07:28:35;11.20;52.70
11239;DHT22;5677;48.488;13.436;2023-12-20T07:31:03;11.20;52.70
11239;DHT22;5677;48.488;13.436;2023-12-20T07:33:30;11.20;52.70
11239;DHT22;5677;48.488;13.436;2023-12-20T07:35:57;11.20;52.70
11239;DHT22;5677;48.488;13.436;2023-12-20T07:38:24;11.20;52.70
11239;DHT22;5677;48.488;13.436;2023-12-20T07:40:51;11.20;52.70
11239;DHT22;5677;48.488;13.436;2023-12-20T07:43:17;11.20;52.70
11239;DHT22;5677;48.488;13.436;2023-12-20T07:45:44;11.20;52.70
11239;DHT22;5677;48.488;13.436;2023-12-20T07:48:12;11.30;52.80
11239;DHT22;5677;48.488;13.436;2023-12-20T07:50:39;11.20;52.70
11239;DHT22;5677;48.488;13.436;2023-12-20T07:53:06;11.30;52.80
11239;DHT22;5677;48.488;13.436;2023-12-20T07:55:32;11.30;52.70
11239;DHT22;5677;48.488;13.436;2023-12-20T07:58:00;11.20;52.60
11239;DHT22;5677;48.488;13.436;2023-12-20T08:00:26;11.30;52.70
11239;DHT22;5677;48.488;13.436;2023-12-20T08:02:53;11.20;52.60
11239;DHT22;5677;48.488;13.436;2023-12-20T08:05:21;11.30;52.70
11239;DHT22;5677;48.488;13.436;2023-12-20T08:07:48;11.20;52.60
11239;DHT22;5677;48.488;13.436;2023-12-20T08:10:15;11.30;52.70
11239;DHT22;5677;48.488;13.436;2023-12-20T08:12:43;11.30;52.70
11239;DHT22;5677;48.488;13.436;2023-12-20T08:15:10;11.30;52.70
11239;DHT22;5677;48.488;13.436;2023-12-20T08:17:37;11.30;52.70
11239;DHT22;5677;48.488;13.436;2023-12-20T08:20:04;11.30;52.70
11239;DHT22;5677;48.488;13.436;2023-12-20T08:22:33;11.30;52.70
11239;DHT22;5677;48.488;13.436;2023-12-20T08:24:59;11.30;52.70
11239;DHT22;5677;48.488;13.436;2023-12-20T08:27:27;11.30;52.80
11239;DHT22;5677;48.488;13.436;2023-12-20T08:29:53;11.30;52.70
11239;DHT22;5677;48.488;13.436;2023-12-20T08:32:20;11.30;52.70
11239;DHT22;5677;48.488;13.436;2023-12-20T08:34:47;11.30;52.70
11239;DHT22;5677;48.488;13.436;2023-12-20T08:37:14;11.30;52.70
11239;DHT22;5677;48.488;13.436;2023-12-20T08:39:42;11.30;52.70
11239;DHT22;5677;48.488;13.436;2023-12-20T08:42:09;11.30;52.70
11239;DHT22;5677;48.488;13.436;2023-12-20T08:44:36;11.30;52.70
11239;DHT22;5677;48.488;13.436;2023-12-20T08:47:03;11.30;52.70
11239;DHT22;5677;48.488;13.436;2023-12-20T08:49:30;11.30;52.80
11239;DHT22;5677;48.488;13.436;2023-12-20T08:51:56;11.30;52.70
11239;DHT22;5677;48.488;13.436;2023-12-20T08:54:23;11.30;52.70
11239;DHT22;5677;48.488;13.436;2023-12-20T08:56:51;11.30;52.70
11239;DHT22;5677;48.488;13.436;2023-12-20T08:59:18;11.40;52.70
11239;DHT22;5677;48.488;13.436;2023-12-20T09:01:45;11.30;52.70
11239;DHT22;5677;48.488;13.436;2023-12-20T09:04:13;11.30;52.70
11239;DHT22;5677;48.488;13.436;2023-12-20T09:06:40;11.40;53.40
11239;DHT22;5677;48.488;13.436;2023-12-20T09:09:06;11.30;52.70
11239;DHT22;5677;48.488;13.436;2023-12-20T09:11:35;11.30;52.80
11239;DHT22;5677;48.488;13.436;2023-12-20T09:14:03;11.30;52.80
11239;DHT22;5677;48.488;13.436;2023-12-20T09:16:30;11.30;52.70
11239;DHT22;5677;48.488;13.436;2023-12-20T09:18:57;11.30;52.70
11239;DHT22;5677;48.488;13.436;2023-12-20T09:21:24;11.30;52.70
11239;DHT22;5677;48.488;13.436;2023-12-20T09:23:51;11.40;52.70
11239;DHT22;5677;48.488;13.436;2023-12-20T09:26:18;11.40;52.70
11239;DHT22;5677;48.488;13.436;2023-12-20T09:28:45;11.40;52.70
11239;DHT22;5677;48.488;13.436;2023-12-20T09:31:13;11.40;52.70
11239;DHT22;5677;48.488;13.436;2023-12-20T09:33:39;11.40;52.70
11239;DHT22;5677;48.488;13.436;2023-12-20T09:36:07;11.40;52.70
11239;DHT22;5677;48.488;13.436;2023-12-20T09:38:33;11.40;52.70
11239;DHT22;5677;48.488;13.436;2023-12-20T09:41:00;11.40;52.70
11239;DHT22;5677;48.488;13.436;2023-12-20T09:43:29;11.40;52.70
11239;DHT22;5677;48.488;13.436;2023-12-20T09:46:00;11.40;52.70
11239;DHT22;5677;48.488;13.436;2023-12-20T09:48:31;11.40;52.70
11239;DHT22;5677;48.488;13.436;2023-12-20T09:50:59;11.40;52.70
11239;DHT22;5677;48.488;13.436;2023-12-20T09:53:26;11.40;52.70
11239;DHT22;5677;48.488;13.436;2023-12-20T09:55:58;11.40;52.70
11239;DHT22;5677;48.488;13.436;2023-12-20T09:58:25;11.40;52.70
11239;DHT22;5677;48.488;13.436;2023-12-20T10:00:53;11.40;52.70
11239;DHT22;5677;48.488;13.436;2023-12-20T10:03:23;11.40;52.60
11239;DHT22;5677;48.488;13.436;2023-12-20T10:05:52;11.40;52.70
11239;DHT22;5677;48.488;13.436;2023-12-20T10:08:21;11.40;52.60
11239;DHT22;5677;48.488;13.436;2023-12-20T10:10:48;11.40;52.70
11239;DHT22;5677;48.488;13.436;2023-12-20T10:13:15;11.40;52.70
11239;DHT22;5677;48.488;13.436;2023-12-20T10:15:42;11.40;52.70
11239;DHT22;5677;48.488;13.436;2023-12-20T10:18:09;11.40;52.70
11239;DHT22;5677;48.488;13.436;2023-12-20T10:20:36;11.40;53.40
11239;DHT22;5677;48.488;13.436;2023-12-20T10:23:04;11.40;52.70
11239;DHT22;5677;48.488;13.436;2023-12-20T10:25:31;11.40;52.70
11239;DHT22;5677;48.488;13.436;2023-12-20T10:28:13;11.40;52.70
11239;DHT22;5677;48.488;13.436;2023-12-20T10:30:42;11.40;52.70
11239;DHT22;5677;48.488;13.436;2023-12-20T10:33:09;11.50;52.70
11239;DHT22;5677;48.488;13.436;2023-12-20T10:35:37;11.40;52.60
11239;DHT22;5677;48.488;13.436;2023-12-20T10:38:06;11.40;52.70
11239;DHT22;5677;48.488;13.436;2023-12-20T10:40:35;11.50;52.70
11239;DHT22;5677;48.488;13.436;2023-12-20T10:43:04;11.50;52.70
11239;DHT22;5677;48.488;13.436;2023-12-20T10:45:31;11.40;52.70
11239;DHT22;5677;48.488;13.436;2023-12-20T10:47:58;11.40;52.70
11239;DHT22;5677;48.488;13.436;2023-12-20T10:50:27;11.40;52.70
11239;DHT22;5677;48.488;13.436;2023-12-20T10:52:55;11.40;52.70
11239;DHT22;5677;48.488;13.436;2023-12-20T10:55:24;11.50;52.70
11239;DHT22;5677;48.488;13.436;2023-12-20T10:57:51;11.50;52.70
11239;DHT22;5677;48.488;13.436;2023-12-20T11:00:19;11.50;52.80
11239;DHT22;5677;48.488;13.436;2023-12-20T11:02:49;11.50;52.70
11239;DHT22;5677;48.488;13.436;2023-12-20T11:05:25;11.50;52.70
11239;DHT22;5677;48.488;13.436;2023-12-20T11:07:58;11.50;52.70
11239;DHT22;5677;48.488;13.436;2023-12-20T11:10:34;11.50;52.70
11239;DHT22;5677;48.488;13.436;2023-12-20T11:13:06;11.50;52.70
11239;DHT22;5677;48.488;13.436;2023-12-20T11:15:35;11.50;52.70
11239;DHT22;5677;48.488;13.436;2023-12-20T11:18:04;11.50;52.70
11239;DHT22;5677;48.488;13.436;2023-12-20T11:20:36;11.50;52.70
11239;DHT22;5677;48.488;13.436;2023-12-20T11:23:04;11.50;52.70
11239;DHT22;5677;48.488;13.436;2023-12-20T11:25:46;11.50;52.70
11239;DHT22;5677;48.488;13.436;2023-12-20T11:28:13;11.50;52.70
11239;DHT22;5677;48.488;13.436;2023-12-20T11:30:46;11.50;52.70
11239;DHT22;5677;48.488;13.436;2023-12-20T11:33:14;11.50;52.70
11239;DHT22;5677;48.488;13.436;2023-12-20T11:35:41;11.50;52.70
11239;DHT22;5677;48.488;13.436;2023-12-20T11:38:08;11.50;52.70
11239;DHT22;5677;48.488;13.436;2023-12-20T11:40:37;11.50;52.70
11239;DHT22;5677;48.488;13.436;2023-12-20T11:43:04;11.50;52.70
11239;DHT22;5677;48.488;13.436;2023-12-20T11:45:31;11.50;52.70
11239;DHT22;5677;48.488;13.436;2023-12-20T11:47:58;11.50;52.70
11239;DHT22;5677;48.488;13.436;2023-12-20T11:50:25;11.50;52.60
11239;DHT22;5677;48.488;13.436;2023-12-20T11:52:52;11.50;52.60
11239;DHT22;5677;48.488;13.436;2023-12-20T11:55:19;11.50;52.70
11239;DHT22;5677;48.488;13.436;2023-12-20T11:57:48;11.50;52.70
11239;DHT22;5677;48.488;13.436;2023-12-20T12:00:15;11.50;52.70
11239;DHT22;5677;48.488;13.436;2023-12-20T12:02:42;11.50;52.70
11239;DHT22;5677;48.488;13.436;2023-12-20T12:05:09;11.50;52.70
11239;DHT22;5677;48.488;13.436;2023-12-20T12:07:36;11.50;52.70
11239;DHT22;5677;48.488;13.436;2023-12-20T12:10:03;11.50;52.60
11239;DHT22;5677;48.488;13.436;2023-12-20T12:12:30;11.60;52.70
11239;DHT22;5677;48.488;13.436;2023-12-20T12:14:59;11.50;52.60
11239;DHT22;5677;48.488;13.436;2023-12-20T12:17:26;11.60;52.60
11239;DHT22;5677;48.488;13.436;2023-12-20T12:20:02;11.60;52.60
11239;DHT22;5677;48.488;13.436;2023-12-20T12:22:29;11.50;52.60
11239;DHT22;5677;48.488;13.436;2023-12-20T12:24:59;11.50;52.60
11239;DHT22;5677;48.488;13.436;2023-12-20T12:27:27;11.50;52.70
11239;DHT22;5677;48.488;13.436;2023-12-20T12:30:01;11.60;52.60
11239;DHT22;5677;48.488;13.436;2023-12-20T12:32:29;11.60;52.60
11239;DHT22;5677;48.488;13.436;2023-12-20T12:34:56;11.60;52.60
11239;DHT22;5677;48.488;13.436;2023-12-20T12:37:23;11.50;52.60
11239;DHT22;5677;48.488;13.436;2023-12-20T12:39:50;11.60;52.60
11239;DHT22;5677;48.488;13.436;2023-12-20T12:42:19;11.60;52.60
11239;DHT22;5677;48.488;13.436;2023-12-20T12:44:47;11.60;52.50
11239;DHT22;5677;48.488;13.436;2023-12-20T12:47:15;11.60;52.60
11239;DHT22;5677;48.488;13.436;2023-12-20T12:49:41;11.60;52.50
11239;DHT22;5677;48.488;13.436;2023-12-20T12:52:08;11.60;52.50
11239;DHT22;5677;48.488;13.436;2023-12-20T12:54:35;11.60;52.50
11239;DHT22;5677;48.488;13.436;2023-12-20T12:57:02;11.60;52.50
11239;DHT22;5677;48.488;13.436;2023-12-20T12:59:29;11.60;52.50
11239;DHT22;5677;48.488;13.436;2023-12-20T13:01:56;11.60;52.50
11239;DHT22;5677;48.488;13.436;2023-12-20T13:04:25;11.60;52.50
11239;DHT22;5677;48.488;13.436;2023-12-20T13:06:51;11.60;52.50
11239;DHT22;5677;48.488;13.436;2023-12-20T13:09:18;11.60;52.50
11239;DHT22;5677;48.488;13.436;2023-12-20T13:11:45;11.60;52.50
11239;DHT22;5677;48.488;13.436;2023-12-20T13:14:12;11.60;52.50
11239;DHT22;5677;48.488;13.436;2023-12-20T13:16:41;11.60;52.40
11239;DHT22;5677;48.488;13.436;2023-12-20T13:19:08;11.70;52.50
11239;DHT22;5677;48.488;13.436;2023-12-20T13:21:36;11.60;52.50
11239;DHT22;5677;48.488;13.436;2023-12-20T13:24:04;11.60;52.40
11239;DHT22;5677;48.488;13.436;2023-12-20T13:26:31;11.70;52.50
11239;DHT22;5677;48.488;13.436;2023-12-20T13:28:58;11.70;52.50
11239;DHT22;5677;48.488;13.436;2023-12-20T13:31:25;11.60;52.40
11239;DHT22;5677;48.488;13.436;2023-12-20T13:33:51;11.60;52.40
11239;DHT22;5677;48.488;13.436;2023-12-20T13:36:18;11.70;52.50
11239;DHT22;5677;48.488;13.436;2023-12-20T13:38:46;11.70;52.50
11239;DHT22;5677;48.488;13.436;2023-12-20T13:41:13;11.70;52.50
11239;DHT22;5677;48.488;13.436;2023-12-20T13:43:40;11.70;52.50
11239;DHT22;5677;48.488;13.436;2023-12-20T13:46:08;11.70;52.60
11239;DHT22;5677;48.488;13.436;2023-12-20T13:48:35;11.70;52.50
11239;DHT22;5677;48.488;13.436;2023-12-20T13:51:01;11.60;52.40
11239;DHT22;5677;48.488;13.436;2023-12-20T13:53:28;11.70;52.60
11239;DHT22;5677;48.488;13.436;2023-12-20T13:55:57;11.70;52.50
11239;DHT22;5677;48.488;13.436;2023-12-20T13:58:25;11.70;52.50
11239;DHT22;5677;48.488;13.436;2023-12-20T14:00:52;11.60;52.40
11239;DHT22;5677;48.488;13.436;2023-12-20T14:03:18;11.70;52.50
11239;DHT22;5677;48.488;13.436;2023-12-20T14:05:46;11.70;52.50
11239;DHT22;5677;48.488;13.436;2023-12-20T14:08:13;11.70;52.50
11239;DHT22;5677;48.488;13.436;2023-12-20T14:10:39;11.70;52.50
11239;DHT22;5677;48.488;13.436;2023-12-20T14:13:07;11.70;52.50
11239;DHT22;5677;48.488;13.436;2023-12-20T14:15:34;11.70;52.50
11239;DHT22;5677;48.488;13.436;2023-12-20T14:18:04;11.70;52.50
11239;DHT22;5677;48.488;13.436;2023-12-20T14:20:32;11.70;52.50
11239;DHT22;5677;48.488;13.436;2023-12-20T14:23:00;11.70;52.50
11239;DHT22;5677;48.488;13.436;2023-12-20T14:25:26;11.70;52.50
11239;DHT22;5677;48.488;13.436;2023-12-20T14:27:53;11.70;52.60
11239;DHT22;5677;48.488;13.436;2023-12-20T14:30:22;11.70;52.50
11239;DHT22;5677;48.488;13.436;2023-12-20T14:32:48;11.70;52.50
11239;DHT22;5677;48.488;13.436;2023-12-20T14:35:15;11.70;52.50
11239;DHT22;5677;48.488;13.436;2023-12-20T14:37:42;11.70;52.50
11239;DHT22;5677;48.488;13.436;2023-12-20T14:40:11;11.70;52.50
11239;DHT22;5677;48.488;13.436;2023-12-20T14:42:40;11.70;52.50
11239;DHT22;5677;48.488;13.436;2023-12-20T14:45:08;11.70;52.50
11239;DHT22;5677;48.488;13.436;2023-12-20T14:47:36;11.70;52.50
11239;DHT22;5677;48.488;13.436;2023-12-20T14:50:03;11.70;52.50
11239;DHT22;5677;48.488;13.436;2023-12-20T14:52:30;11.70;52.50
11239;DHT22;5677;48.488;13.436;2023-12-20T14:54:57;11.70;52.50
11239;DHT22;5677;48.488;13.436;2023-12-20T14:57:24;11.70;52.50
11239;DHT22;5677;48.488;13.436;2023-12-20T14:59:51;11.70;52.50
11239;DHT22;5677;48.488;13.436;2023-12-20T15:02:18;11.70;52.50
11239;DHT22;5677;48.488;13.436;2023-12-20T15:04:46;11.70;52.50
11239;DHT22;5677;48.488;13.436;2023-12-20T15:07:13;11.70;52.60
11239;DHT22;5677;48.488;13.436;2023-12-20T15:09:40;11.70;52.50
11239;DHT22;5677;48.488;13.436;2023-12-20T15:12:11;11.70;52.50
11239;DHT22;5677;48.488;13.436;2023-12-20T15:14:38;11.70;52.50
11239;DHT22;5677;48.488;13.436;2023-12-20T15:17:05;11.70;52.60
11239;DHT22;5677;48.488;13.436;2023-12-20T15:19:31;11.70;52.60
11239;DHT22;5677;48.488;13.436;2023-12-20T15:22:00;11.70;52.50
11239;DHT22;5677;48.488;13.436;2023-12-20T15:24:26;11.70;52.50
11239;DHT22;5677;48.488;13.436;2023-12-20T15:27:02;11.70;52.60
11239;DHT22;5677;48.488;13.436;2023-12-20T15:29:29;11.70;52.60
11239;DHT22;5677;48.488;13.436;2023-12-20T15:31:56;11.70;52.60